sensor_id;sensor_type;location;lat;lon;timestamp;P1;durP1;ratioP1;P2;durP2;ratioP2
23449;SDS011;11897;45.438;12.128;2022-11-02T00:01:29;11.17;;;4.97;;
23449;SDS011;11897;45.438;12.128;2022-11-02T00:03:58;10.53;;;5.37;;
23449;SDS011;11897;45.438;12.128;2022-11-02T00:06:26;10.37;;;5.47;;
23449;SDS011;11897;45.438;12.128;2022-11-02T00:08:53;9.20;;;5.67;;
23449;SDS011;11897;45.438;12.128;2022-11-02T00:11:20;10.90;;;5.43;;
23449;SDS011;11897;45.438;12.128;2022-11-02T00:13:46;9.77;;;5.30;;
23449;SDS011;11897;45.438;12.128;2022-11-02T00:16:13;9.30;;;5.13;;
23449;SDS011;11897;45.438;12.128;2022-11-02T00:18:41;10.70;;;5.63;;
23449;SDS011;11897;45.438;12.128;2022-11-02T00:21:08;12.97;;;6.20;;
23449;SDS011;11897;45.438;12.128;2022-11-02T00:23:37;9.90;;;5.77;;
23449;SDS011;11897;45.438;12.128;2022-11-02T00:26:05;11.57;;;6.43;;
23449;SDS011;11897;45.438;12.128;2022-11-02T00:28:32;11.20;;;5.83;;
23449;SDS011;11897;45.438;12.128;2022-11-02T00:30:59;16.00;;;7.47;;
23449;SDS011;11897;45.438;12.128;2022-11-02T00:33:25;10.50;;;4.57;;
23449;SDS011;11897;45.438;12.128;2022-11-02T00:35:52;13.80;;;6.33;;
23449;SDS011;11897;45.438;12.128;2022-11-02T00:38:18;10.77;;;5.43;;
23449;SDS011;11897;45.438;12.128;2022-11-02T00:40:46;13.50;;;5.93;;
23449;SDS011;11897;45.438;12.128;2022-11-02T00:43:13;11.83;;;4.83;;
23449;SDS011;11897;45.438;12.128;2022-11-02T00:45:40;13.50;;;7.07;;
23449;SDS011;11897;45.438;12.128;2022-11-02T00:48:08;10.50;;;6.03;;
23449;SDS011;11897;45.438;12.128;2022-11-02T00:50:38;9.33;;;5.20;;
23449;SDS011;11897;45.438;12.128;2022-11-02T00:53:05;14.13;;;5.23;;
23449;SDS011;11897;45.438;12.128;2022-11-02T00:55:32;10.40;;;5.57;;
23449;SDS011;11897;45.438;12.128;2022-11-02T00:58:03;15.53;;;6.50;;
23449;SDS011;11897;45.438;12.128;2022-11-02T01:00:30;10.80;;;5.67;;
23449;SDS011;11897;45.438;12.128;2022-11-02T01:02:58;8.83;;;5.47;;
23449;SDS011;11897;45.438;12.128;2022-11-02T01:05:24;10.63;;;4.63;;
23449;SDS011;11897;45.438;12.128;2022-11-02T01:07:51;9.90;;;4.97;;
23449;SDS011;11897;45.438;12.128;2022-11-02T01:10:18;8.13;;;4.90;;
23449;SDS011;11897;45.438;12.128;2022-11-02T01:12:45;10.80;;;5.17;;
23449;SDS011;11897;45.438;12.128;2022-11-02T01:15:13;9.70;;;5.33;;
23449;SDS011;11897;45.438;12.128;2022-11-02T01:17:40;9.03;;;4.33;;
23449;SDS011;11897;45.438;12.128;2022-11-02T01:20:07;8.07;;;4.67;;
23449;SDS011;11897;45.438;12.128;2022-11-02T01:22:34;9.67;;;4.43;;
23449;SDS011;11897;45.438;12.128;2022-11-02T01:25:00;9.17;;;4.73;;
23449;SDS011;11897;45.438;12.128;2022-11-02T01:27:27;9.70;;;4.90;;
23449;SDS011;11897;45.438;12.128;2022-11-02T01:29:55;10.00;;;4.50;;
23449;SDS011;11897;45.438;12.128;2022-11-02T01:32:23;13.80;;;5.40;;
23449;SDS011;11897;45.438;12.128;2022-11-02T01:34:50;8.40;;;4.13;;
23449;SDS011;11897;45.438;12.128;2022-11-02T01:37:17;10.70;;;5.13;;
23449;SDS011;11897;45.438;12.128;2022-11-02T01:39:44;8.20;;;4.70;;
23449;SDS011;11897;45.438;12.128;2022-11-02T01:42:15;9.07;;;4.17;;
23449;SDS011;11897;45.438;12.128;2022-11-02T01:44:43;8.83;;;4.07;;
23449;SDS011;11897;45.438;12.128;2022-11-02T01:47:11;11.27;;;4.23;;
23449;SDS011;11897;45.438;12.128;2022-11-02T01:49:41;7.83;;;3.90;;
23449;SDS011;11897;45.438;12.128;2022-11-02T01:52:10;8.53;;;4.87;;
23449;SDS011;11897;45.438;12.128;2022-11-02T01:54:39;7.97;;;4.70;;
23449;SDS011;11897;45.438;12.128;2022-11-02T01:57:07;7.70;;;4.47;;
23449;SDS011;11897;45.438;12.128;2022-11-02T01:59:41;8.67;;;3.77;;
23449;SDS011;11897;45.438;12.128;2022-11-02T02:02:13;5.63;;;3.23;;
23449;SDS011;11897;45.438;12.128;2022-11-02T02:04:42;7.90;;;3.97;;
23449;SDS011;11897;45.438;12.128;2022-11-02T02:07:09;8.40;;;4.37;;
23449;SDS011;11897;45.438;12.128;2022-11-02T02:09:39;9.23;;;4.30;;
23449;SDS011;11897;45.438;12.128;2022-11-02T02:12:06;8.17;;;4.30;;
23449;SDS011;11897;45.438;12.128;2022-11-02T02:14:33;7.70;;;4.60;;
23449;SDS011;11897;45.438;12.128;2022-11-02T02:17:06;8.07;;;3.90;;
23449;SDS011;11897;45.438;12.128;2022-11-02T02:19:39;5.97;;;4.23;;
23449;SDS011;11897;45.438;12.128;2022-11-02T02:24:57;8.87;;;4.63;;
23449;SDS011;11897;45.438;12.128;2022-11-02T02:27:28;10.27;;;4.77;;
23449;SDS011;11897;45.438;12.128;2022-11-02T02:30:03;8.97;;;5.03;;
23449;SDS011;11897;45.438;12.128;2022-11-02T02:32:34;11.63;;;5.97;;
23449;SDS011;11897;45.438;12.128;2022-11-02T02:35:05;14.17;;;5.33;;
23449;SDS011;11897;45.438;12.128;2022-11-02T02:37:35;12.57;;;6.60;;
23449;SDS011;11897;45.438;12.128;2022-11-02T02:40:06;14.23;;;6.13;;
23449;SDS011;11897;45.438;12.128;2022-11-02T02:42:39;7.97;;;4.63;;
23449;SDS011;11897;45.438;12.128;2022-11-02T02:45:10;12.13;;;5.30;;
23449;SDS011;11897;45.438;12.128;2022-11-02T02:47:38;7.80;;;3.90;;
23449;SDS011;11897;45.438;12.128;2022-11-02T02:50:06;9.23;;;5.03;;
23449;SDS011;11897;45.438;12.128;2022-11-02T02:52:36;9.53;;;5.23;;
23449;SDS011;11897;45.438;12.128;2022-11-02T02:55:06;8.37;;;4.83;;
23449;SDS011;11897;45.438;12.128;2022-11-02T02:57:33;9.97;;;5.23;;
23449;SDS011;11897;45.438;12.128;2022-11-02T03:00:01;9.23;;;4.57;;
23449;SDS011;11897;45.438;12.128;2022-11-02T03:02:35;7.70;;;4.27;;
23449;SDS011;11897;45.438;12.128;2022-11-02T03:07:46;12.30;;;5.67;;
23449;SDS011;11897;45.438;12.128;2022-11-02T03:10:15;13.30;;;4.93;;
23449;SDS011;11897;45.438;12.128;2022-11-02T03:12:44;11.80;;;5.20;;
23449;SDS011;11897;45.438;12.128;2022-11-02T03:15:17;8.93;;;5.70;;
23449;SDS011;11897;45.438;12.128;2022-11-02T03:17:51;12.13;;;6.27;;
23449;SDS011;11897;45.438;12.128;2022-11-02T03:20:27;15.33;;;4.90;;
23449;SDS011;11897;45.438;12.128;2022-11-02T03:23:01;8.67;;;4.73;;
23449;SDS011;11897;45.438;12.128;2022-11-02T03:25:31;11.30;;;4.80;;
23449;SDS011;11897;45.438;12.128;2022-11-02T03:28:01;8.10;;;3.53;;
23449;SDS011;11897;45.438;12.128;2022-11-02T03:30:33;8.40;;;5.10;;
23449;SDS011;11897;45.438;12.128;2022-11-02T03:33:05;10.17;;;4.40;;
23449;SDS011;11897;45.438;12.128;2022-11-02T03:35:34;10.83;;;5.40;;
23449;SDS011;11897;45.438;12.128;2022-11-02T03:38:03;11.03;;;5.30;;
23449;SDS011;11897;45.438;12.128;2022-11-02T03:40:32;10.90;;;5.03;;
23449;SDS011;11897;45.438;12.128;2022-11-02T03:42:59;8.23;;;4.40;;
23449;SDS011;11897;45.438;12.128;2022-11-02T03:45:28;10.60;;;4.63;;
23449;SDS011;11897;45.438;12.128;2022-11-02T03:47:59;8.97;;;4.77;;
23449;SDS011;11897;45.438;12.128;2022-11-02T03:50:29;11.87;;;5.73;;
23449;SDS011;11897;45.438;12.128;2022-11-02T03:52:58;10.87;;;5.10;;
23449;SDS011;11897;45.438;12.128;2022-11-02T03:55:28;10.83;;;5.10;;
23449;SDS011;11897;45.438;12.128;2022-11-02T03:57:55;12.27;;;5.47;;
23449;SDS011;11897;45.438;12.128;2022-11-02T04:00:28;9.30;;;5.57;;
23449;SDS011;11897;45.438;12.128;2022-11-02T04:03:02;13.10;;;5.80;;
23449;SDS011;11897;45.438;12.128;2022-11-02T04:05:36;11.13;;;6.27;;
23449;SDS011;11897;45.438;12.128;2022-11-02T04:08:10;15.37;;;5.53;;
23449;SDS011;11897;45.438;12.128;2022-11-02T04:10:54;8.90;;;4.70;;
23449;SDS011;11897;45.438;12.128;2022-11-02T04:13:40;11.23;;;6.60;;
23449;SDS011;11897;45.438;12.128;2022-11-02T04:16:27;11.47;;;5.57;;
23449;SDS011;11897;45.438;12.128;2022-11-02T04:18:57;12.43;;;5.87;;
23449;SDS011;11897;45.438;12.128;2022-11-02T04:21:44;12.60;;;6.17;;
23449;SDS011;11897;45.438;12.128;2022-11-02T04:24:25;14.53;;;6.30;;
23449;SDS011;11897;45.438;12.128;2022-11-02T04:27:09;14.50;;;6.50;;
23449;SDS011;11897;45.438;12.128;2022-11-02T04:29:36;9.53;;;5.77;;
23449;SDS011;11897;45.438;12.128;2022-11-02T04:32:03;14.20;;;6.57;;
23449;SDS011;11897;45.438;12.128;2022-11-02T04:34:31;11.90;;;5.57;;
23449;SDS011;11897;45.438;12.128;2022-11-02T04:36:58;13.47;;;6.30;;
23449;SDS011;11897;45.438;12.128;2022-11-02T04:39:25;13.30;;;6.27;;
23449;SDS011;11897;45.438;12.128;2022-11-02T04:41:51;9.10;;;5.60;;
23449;SDS011;11897;45.438;12.128;2022-11-02T04:44:34;10.23;;;5.50;;
23449;SDS011;11897;45.438;12.128;2022-11-02T04:47:06;13.17;;;5.87;;
23449;SDS011;11897;45.438;12.128;2022-11-02T04:49:34;13.60;;;6.37;;
23449;SDS011;11897;45.438;12.128;2022-11-02T04:52:05;13.60;;;6.93;;
23449;SDS011;11897;45.438;12.128;2022-11-02T04:54:36;9.93;;;5.93;;
23449;SDS011;11897;45.438;12.128;2022-11-02T04:57:04;10.97;;;5.43;;
23449;SDS011;11897;45.438;12.128;2022-11-02T04:59:32;11.00;;;5.10;;
23449;SDS011;11897;45.438;12.128;2022-11-02T05:01:59;8.17;;;4.83;;
23449;SDS011;11897;45.438;12.128;2022-11-02T05:04:26;15.30;;;6.33;;
23449;SDS011;11897;45.438;12.128;2022-11-02T05:06:54;13.33;;;6.10;;
23449;SDS011;11897;45.438;12.128;2022-11-02T05:09:23;12.13;;;5.50;;
23449;SDS011;11897;45.438;12.128;2022-11-02T05:11:50;15.77;;;5.67;;
23449;SDS011;11897;45.438;12.128;2022-11-02T05:14:18;11.30;;;5.57;;
23449;SDS011;11897;45.438;12.128;2022-11-02T05:16:46;13.03;;;4.77;;
23449;SDS011;11897;45.438;12.128;2022-11-02T05:19:13;13.27;;;6.20;;
23449;SDS011;11897;45.438;12.128;2022-11-02T05:21:41;11.67;;;4.87;;
23449;SDS011;11897;45.438;12.128;2022-11-02T05:24:10;11.97;;;5.53;;
23449;SDS011;11897;45.438;12.128;2022-11-02T05:26:41;13.33;;;6.33;;
23449;SDS011;11897;45.438;12.128;2022-11-02T05:29:07;9.37;;;5.47;;
23449;SDS011;11897;45.438;12.128;2022-11-02T05:31:35;14.13;;;5.63;;
23449;SDS011;11897;45.438;12.128;2022-11-02T05:34:02;16.30;;;5.20;;
23449;SDS011;11897;45.438;12.128;2022-11-02T05:36:29;10.03;;;4.67;;
23449;SDS011;11897;45.438;12.128;2022-11-02T05:38:56;16.10;;;5.73;;
23449;SDS011;11897;45.438;12.128;2022-11-02T05:41:24;9.50;;;4.33;;
23449;SDS011;11897;45.438;12.128;2022-11-02T05:43:55;9.47;;;5.43;;
23449;SDS011;11897;45.438;12.128;2022-11-02T05:46:26;12.37;;;6.63;;
23449;SDS011;11897;45.438;12.128;2022-11-02T05:48:53;15.20;;;7.40;;
23449;SDS011;11897;45.438;12.128;2022-11-02T05:51:20;11.30;;;5.33;;
23449;SDS011;11897;45.438;12.128;2022-11-02T05:53:46;13.90;;;6.53;;
23449;SDS011;11897;45.438;12.128;2022-11-02T05:56:13;14.97;;;6.67;;
23449;SDS011;11897;45.438;12.128;2022-11-02T05:58:40;16.93;;;5.57;;
23449;SDS011;11897;45.438;12.128;2022-11-02T06:01:09;13.67;;;6.60;;
23449;SDS011;11897;45.438;12.128;2022-11-02T06:03:37;13.37;;;6.23;;
23449;SDS011;11897;45.438;12.128;2022-11-02T06:06:04;14.10;;;5.60;;
23449;SDS011;11897;45.438;12.128;2022-11-02T06:08:32;12.87;;;6.27;;
23449;SDS011;11897;45.438;12.128;2022-11-02T06:11:02;10.83;;;5.50;;
23449;SDS011;11897;45.438;12.128;2022-11-02T06:13:29;13.20;;;5.17;;
23449;SDS011;11897;45.438;12.128;2022-11-02T06:15:57;13.27;;;5.77;;
23449;SDS011;11897;45.438;12.128;2022-11-02T06:18:25;12.43;;;5.73;;
23449;SDS011;11897;45.438;12.128;2022-11-02T06:20:52;11.70;;;5.70;;
23449;SDS011;11897;45.438;12.128;2022-11-02T06:23:18;12.80;;;5.17;;
23449;SDS011;11897;45.438;12.128;2022-11-02T06:25:49;11.47;;;5.37;;
23449;SDS011;11897;45.438;12.128;2022-11-02T06:28:15;17.43;;;6.50;;
23449;SDS011;11897;45.438;12.128;2022-11-02T06:30:42;9.93;;;5.33;;
23449;SDS011;11897;45.438;12.128;2022-11-02T06:33:09;10.17;;;5.70;;
23449;SDS011;11897;45.438;12.128;2022-11-02T06:35:37;16.20;;;5.97;;
23449;SDS011;11897;45.438;12.128;2022-11-02T06:38:03;12.47;;;5.63;;
23449;SDS011;11897;45.438;12.128;2022-11-02T06:40:30;12.53;;;6.20;;
23449;SDS011;11897;45.438;12.128;2022-11-02T06:42:57;7.73;;;5.10;;
23449;SDS011;11897;45.438;12.128;2022-11-02T06:45:24;10.13;;;5.07;;
23449;SDS011;11897;45.438;12.128;2022-11-02T06:47:50;7.97;;;4.97;;
23449;SDS011;11897;45.438;12.128;2022-11-02T06:50:24;8.40;;;4.83;;
23449;SDS011;11897;45.438;12.128;2022-11-02T06:52:52;14.47;;;5.23;;
23449;SDS011;11897;45.438;12.128;2022-11-02T06:55:19;9.50;;;5.93;;
23449;SDS011;11897;45.438;12.128;2022-11-02T06:57:46;12.37;;;5.83;;
23449;SDS011;11897;45.438;12.128;2022-11-02T07:00:13;11.73;;;5.93;;
23449;SDS011;11897;45.438;12.128;2022-11-02T07:02:41;11.60;;;5.70;;
23449;SDS011;11897;45.438;12.128;2022-11-02T07:05:08;13.20;;;5.93;;
23449;SDS011;11897;45.438;12.128;2022-11-02T07:07:35;14.00;;;6.73;;
23449;SDS011;11897;45.438;12.128;2022-11-02T07:10:04;9.90;;;6.20;;
23449;SDS011;11897;45.438;12.128;2022-11-02T07:12:34;12.63;;;5.53;;
23449;SDS011;11897;45.438;12.128;2022-11-02T07:15:01;11.40;;;5.63;;
23449;SDS011;11897;45.438;12.128;2022-11-02T07:17:27;16.60;;;5.60;;
23449;SDS011;11897;45.438;12.128;2022-11-02T07:19:54;10.73;;;5.10;;
23449;SDS011;11897;45.438;12.128;2022-11-02T07:22:22;10.70;;;5.23;;
23449;SDS011;11897;45.438;12.128;2022-11-02T07:24:49;9.70;;;5.33;;
23449;SDS011;11897;45.438;12.128;2022-11-02T07:27:17;12.97;;;4.30;;
23449;SDS011;11897;45.438;12.128;2022-11-02T07:29:44;10.97;;;5.33;;
23449;SDS011;11897;45.438;12.128;2022-11-02T07:32:12;11.27;;;6.20;;
23449;SDS011;11897;45.438;12.128;2022-11-02T07:34:39;11.67;;;5.73;;
23449;SDS011;11897;45.438;12.128;2022-11-02T07:37:05;14.77;;;6.43;;
23449;SDS011;11897;45.438;12.128;2022-11-02T07:39:32;14.50;;;6.27;;
23449;SDS011;11897;45.438;12.128;2022-11-02T07:41:59;12.93;;;5.53;;
23449;SDS011;11897;45.438;12.128;2022-11-02T07:44:27;10.53;;;5.10;;
23449;SDS011;11897;45.438;12.128;2022-11-02T07:46:55;14.10;;;6.77;;
23449;SDS011;11897;45.438;12.128;2022-11-02T07:49:22;17.43;;;6.37;;
23449;SDS011;11897;45.438;12.128;2022-11-02T07:51:49;17.37;;;5.97;;
23449;SDS011;11897;45.438;12.128;2022-11-02T07:54:16;16.27;;;5.97;;
23449;SDS011;11897;45.438;12.128;2022-11-02T07:56:43;16.87;;;5.90;;
23449;SDS011;11897;45.438;12.128;2022-11-02T07:59:09;18.07;;;6.27;;
23449;SDS011;11897;45.438;12.128;2022-11-02T08:01:38;14.30;;;6.87;;
23449;SDS011;11897;45.438;12.128;2022-11-02T08:04:05;15.47;;;6.00;;
23449;SDS011;11897;45.438;12.128;2022-11-02T08:06:33;17.13;;;6.13;;
23449;SDS011;11897;45.438;12.128;2022-11-02T08:08:59;16.93;;;6.07;;
23449;SDS011;11897;45.438;12.128;2022-11-02T08:11:27;16.37;;;7.00;;
23449;SDS011;11897;45.438;12.128;2022-11-02T08:13:55;13.73;;;7.23;;
23449;SDS011;11897;45.438;12.128;2022-11-02T08:16:21;17.93;;;7.73;;
23449;SDS011;11897;45.438;12.128;2022-11-02T08:18:50;14.93;;;7.20;;
23449;SDS011;11897;45.438;12.128;2022-11-02T08:21:16;17.13;;;8.10;;
23449;SDS011;11897;45.438;12.128;2022-11-02T08:23:43;15.00;;;7.33;;
23449;SDS011;11897;45.438;12.128;2022-11-02T08:26:10;23.90;;;9.50;;
23449;SDS011;11897;45.438;12.128;2022-11-02T08:28:36;21.37;;;9.67;;
23449;SDS011;11897;45.438;12.128;2022-11-02T08:31:04;17.80;;;7.87;;
23449;SDS011;11897;45.438;12.128;2022-11-02T08:33:31;23.33;;;8.43;;
23449;SDS011;11897;45.438;12.128;2022-11-02T08:36:01;23.40;;;8.43;;
23449;SDS011;11897;45.438;12.128;2022-11-02T08:38:30;17.80;;;7.73;;
23449;SDS011;11897;45.438;12.128;2022-11-02T08:40:57;19.43;;;7.70;;
23449;SDS011;11897;45.438;12.128;2022-11-02T08:43:24;16.50;;;7.43;;
23449;SDS011;11897;45.438;12.128;2022-11-02T08:45:50;20.53;;;8.13;;
23449;SDS011;11897;45.438;12.128;2022-11-02T08:48:17;19.70;;;7.63;;
23449;SDS011;11897;45.438;12.128;2022-11-02T08:50:44;24.83;;;9.23;;
23449;SDS011;11897;45.438;12.128;2022-11-02T08:53:12;18.80;;;7.73;;
23449;SDS011;11897;45.438;12.128;2022-11-02T08:55:39;19.87;;;7.13;;
23449;SDS011;11897;45.438;12.128;2022-11-02T08:58:05;24.27;;;7.90;;
23449;SDS011;11897;45.438;12.128;2022-11-02T09:00:32;18.37;;;7.23;;
23449;SDS011;11897;45.438;12.128;2022-11-02T09:03:00;19.10;;;6.87;;
23449;SDS011;11897;45.438;12.128;2022-11-02T09:05:28;15.43;;;7.50;;
23449;SDS011;11897;45.438;12.128;2022-11-02T09:07:56;22.17;;;6.27;;
23449;SDS011;11897;45.438;12.128;2022-11-02T09:10:24;26.10;;;8.30;;
23449;SDS011;11897;45.438;12.128;2022-11-02T09:12:50;18.30;;;8.03;;
23449;SDS011;11897;45.438;12.128;2022-11-02T09:15:17;24.43;;;6.70;;
23449;SDS011;11897;45.438;12.128;2022-11-02T09:17:45;16.10;;;6.63;;
23449;SDS011;11897;45.438;12.128;2022-11-02T09:20:13;18.13;;;6.53;;
23449;SDS011;11897;45.438;12.128;2022-11-02T09:22:40;23.23;;;8.40;;
23449;SDS011;11897;45.438;12.128;2022-11-02T09:25:07;18.17;;;6.93;;
23449;SDS011;11897;45.438;12.128;2022-11-02T09:27:35;25.70;;;7.10;;
23449;SDS011;11897;45.438;12.128;2022-11-02T09:30:02;21.40;;;7.77;;
23449;SDS011;11897;45.438;12.128;2022-11-02T09:32:29;15.00;;;6.77;;
23449;SDS011;11897;45.438;12.128;2022-11-02T09:34:58;21.50;;;9.43;;
23449;SDS011;11897;45.438;12.128;2022-11-02T09:37:24;15.43;;;6.13;;
23449;SDS011;11897;45.438;12.128;2022-11-02T09:39:51;17.10;;;6.63;;
23449;SDS011;11897;45.438;12.128;2022-11-02T09:42:18;16.27;;;6.90;;
23449;SDS011;11897;45.438;12.128;2022-11-02T09:44:50;14.77;;;6.43;;
23449;SDS011;11897;45.438;12.128;2022-11-02T09:47:19;18.77;;;6.27;;
23449;SDS011;11897;45.438;12.128;2022-11-02T09:49:46;18.43;;;5.47;;
23449;SDS011;11897;45.438;12.128;2022-11-02T09:52:24;15.07;;;5.50;;
23449;SDS011;11897;45.438;12.128;2022-11-02T09:54:53;16.90;;;6.53;;
23449;SDS011;11897;45.438;12.128;2022-11-02T09:57:24;15.47;;;7.80;;
23449;SDS011;11897;45.438;12.128;2022-11-02T09:59:54;16.30;;;6.47;;
23449;SDS011;11897;45.438;12.128;2022-11-02T10:02:23;22.03;;;8.63;;
23449;SDS011;11897;45.438;12.128;2022-11-02T10:07:53;19.30;;;6.37;;
23449;SDS011;11897;45.438;12.128;2022-11-02T10:10:22;16.97;;;7.57;;
23449;SDS011;11897;45.438;12.128;2022-11-02T10:12:53;17.13;;;7.23;;
23449;SDS011;11897;45.438;12.128;2022-11-02T10:15:27;20.20;;;9.33;;
23449;SDS011;11897;45.438;12.128;2022-11-02T10:17:56;19.27;;;8.43;;
23449;SDS011;11897;45.438;12.128;2022-11-02T10:20:25;22.87;;;9.53;;
23449;SDS011;11897;45.438;12.128;2022-11-02T10:22:53;20.30;;;7.97;;
23449;SDS011;11897;45.438;12.128;2022-11-02T10:25:20;19.37;;;8.87;;
23449;SDS011;11897;45.438;12.128;2022-11-02T10:27:47;15.83;;;7.17;;
23449;SDS011;11897;45.438;12.128;2022-11-02T10:30:15;13.63;;;6.50;;
23449;SDS011;11897;45.438;12.128;2022-11-02T10:32:44;22.20;;;8.93;;
23449;SDS011;11897;45.438;12.128;2022-11-02T10:35:15;23.93;;;9.30;;
23449;SDS011;11897;45.438;12.128;2022-11-02T10:37:47;28.37;;;9.07;;
23449;SDS011;11897;45.438;12.128;2022-11-02T10:40:20;23.43;;;10.07;;
23449;SDS011;11897;45.438;12.128;2022-11-02T10:42:54;19.70;;;8.63;;
23449;SDS011;11897;45.438;12.128;2022-11-02T10:45:45;20.77;;;9.13;;
23449;SDS011;11897;45.438;12.128;2022-11-02T10:48:16;29.47;;;10.80;;
23449;SDS011;11897;45.438;12.128;2022-11-02T10:50:51;17.00;;;8.63;;
23449;SDS011;11897;45.438;12.128;2022-11-02T10:53:19;26.57;;;10.40;;
23449;SDS011;11897;45.438;12.128;2022-11-02T10:55:50;22.33;;;8.07;;
23449;SDS011;11897;45.438;12.128;2022-11-02T10:58:18;26.27;;;9.80;;
23449;SDS011;11897;45.438;12.128;2022-11-02T11:00:46;25.73;;;9.80;;
23449;SDS011;11897;45.438;12.128;2022-11-02T11:03:14;21.00;;;9.07;;
23449;SDS011;11897;45.438;12.128;2022-11-02T11:05:50;33.83;;;12.83;;
23449;SDS011;11897;45.438;12.128;2022-11-02T11:08:25;23.70;;;9.13;;
23449;SDS011;11897;45.438;12.128;2022-11-02T11:10:53;20.27;;;9.37;;
23449;SDS011;11897;45.438;12.128;2022-11-02T11:13:21;22.37;;;8.77;;
23449;SDS011;11897;45.438;12.128;2022-11-02T11:15:48;19.63;;;8.77;;
23449;SDS011;11897;45.438;12.128;2022-11-02T11:18:17;23.07;;;8.20;;
23449;SDS011;11897;45.438;12.128;2022-11-02T11:20:45;21.83;;;8.80;;
23449;SDS011;11897;45.438;12.128;2022-11-02T11:23:17;19.80;;;9.17;;
23449;SDS011;11897;45.438;12.128;2022-11-02T11:25:52;21.57;;;9.20;;
23449;SDS011;11897;45.438;12.128;2022-11-02T11:28:23;20.87;;;8.83;;
23449;SDS011;11897;45.438;12.128;2022-11-02T11:31:00;20.03;;;8.33;;
23449;SDS011;11897;45.438;12.128;2022-11-02T11:33:27;19.27;;;8.03;;
23449;SDS011;11897;45.438;12.128;2022-11-02T11:35:56;23.50;;;8.03;;
23449;SDS011;11897;45.438;12.128;2022-11-02T11:38:23;18.03;;;7.17;;
23449;SDS011;11897;45.438;12.128;2022-11-02T11:40:51;16.20;;;6.40;;
23449;SDS011;11897;45.438;12.128;2022-11-02T11:43:19;17.43;;;6.87;;
23449;SDS011;11897;45.438;12.128;2022-11-02T11:45:53;14.00;;;6.27;;
23449;SDS011;11897;45.438;12.128;2022-11-02T11:48:23;20.73;;;6.77;;
23449;SDS011;11897;45.438;12.128;2022-11-02T11:50:53;18.53;;;6.93;;
23449;SDS011;11897;45.438;12.128;2022-11-02T11:53:22;14.83;;;6.87;;
23449;SDS011;11897;45.438;12.128;2022-11-02T11:55:53;19.30;;;6.30;;
23449;SDS011;11897;45.438;12.128;2022-11-02T11:58:20;15.77;;;8.10;;
23449;SDS011;11897;45.438;12.128;2022-11-02T12:01:06;16.17;;;7.17;;
23449;SDS011;11897;45.438;12.128;2022-11-02T12:03:42;13.20;;;5.67;;
23449;SDS011;11897;45.438;12.128;2022-11-02T12:06:15;18.20;;;7.23;;
23449;SDS011;11897;45.438;12.128;2022-11-02T12:08:48;15.73;;;7.30;;
23449;SDS011;11897;45.438;12.128;2022-11-02T12:11:21;19.17;;;7.80;;
23449;SDS011;11897;45.438;12.128;2022-11-02T12:13:53;14.27;;;6.27;;
23449;SDS011;11897;45.438;12.128;2022-11-02T12:16:23;13.47;;;6.13;;
23449;SDS011;11897;45.438;12.128;2022-11-02T12:18:58;19.83;;;6.60;;
23449;SDS011;11897;45.438;12.128;2022-11-02T12:21:33;17.33;;;7.13;;
23449;SDS011;11897;45.438;12.128;2022-11-02T12:32:14;16.65;;;6.93;;
23449;SDS011;11897;45.438;12.128;2022-11-02T12:34:50;20.65;;;6.50;;
23449;SDS011;11897;45.438;12.128;2022-11-02T12:37:24;15.65;;;6.75;;
23449;SDS011;11897;45.438;12.128;2022-11-02T12:40:01;20.58;;;7.25;;
23449;SDS011;11897;45.438;12.128;2022-11-02T12:42:33;14.52;;;7.45;;
23449;SDS011;11897;45.438;12.128;2022-11-02T12:45:03;14.75;;;6.78;;
23449;SDS011;11897;45.438;12.128;2022-11-02T12:47:44;20.38;;;8.07;;
23449;SDS011;11897;45.438;12.128;2022-11-02T12:50:17;21.35;;;8.35;;
23449;SDS011;11897;45.438;12.128;2022-11-02T12:52:53;20.20;;;7.78;;
23449;SDS011;11897;45.438;12.128;2022-11-02T12:55:22;18.48;;;9.23;;
23449;SDS011;11897;45.438;12.128;2022-11-02T12:57:58;16.70;;;6.47;;
23449;SDS011;11897;45.438;12.128;2022-11-02T13:00:25;15.48;;;6.40;;
23449;SDS011;11897;45.438;12.128;2022-11-02T13:02:56;19.20;;;8.33;;
23449;SDS011;11897;45.438;12.128;2022-11-02T13:05:26;18.23;;;7.20;;
23449;SDS011;11897;45.438;12.128;2022-11-02T13:07:56;16.13;;;7.27;;
23449;SDS011;11897;45.438;12.128;2022-11-02T13:10:25;23.90;;;7.60;;
23449;SDS011;11897;45.438;12.128;2022-11-02T13:12:54;20.02;;;7.32;;
23449;SDS011;11897;45.438;12.128;2022-11-02T13:15:22;18.53;;;6.73;;
23449;SDS011;11897;45.438;12.128;2022-11-02T13:17:51;24.63;;;11.03;;
23449;SDS011;11897;45.438;12.128;2022-11-02T13:20:20;22.03;;;8.07;;
23449;SDS011;11897;45.438;12.128;2022-11-02T13:22:49;18.13;;;7.97;;
23449;SDS011;11897;45.438;12.128;2022-11-02T13:25:17;24.00;;;7.57;;
23449;SDS011;11897;45.438;12.128;2022-11-02T13:27:46;16.57;;;8.87;;
23449;SDS011;11897;45.438;12.128;2022-11-02T13:30:14;24.23;;;9.63;;
23449;SDS011;11897;45.438;12.128;2022-11-02T13:32:42;26.27;;;8.93;;
23449;SDS011;11897;45.438;12.128;2022-11-02T13:35:13;22.27;;;8.60;;
23449;SDS011;11897;45.438;12.128;2022-11-02T13:37:43;29.67;;;10.03;;
23449;SDS011;11897;45.438;12.128;2022-11-02T13:40:13;20.67;;;9.43;;
23449;SDS011;11897;45.438;12.128;2022-11-02T13:42:45;21.47;;;9.43;;
23449;SDS011;11897;45.438;12.128;2022-11-02T13:45:21;22.80;;;8.57;;
23449;SDS011;11897;45.438;12.128;2022-11-02T13:50:41;19.23;;;7.47;;
23449;SDS011;11897;45.438;12.128;2022-11-02T13:53:11;25.70;;;11.00;;
23449;SDS011;11897;45.438;12.128;2022-11-02T13:55:43;17.93;;;9.43;;
23449;SDS011;11897;45.438;12.128;2022-11-02T13:58:14;16.77;;;8.07;;
23449;SDS011;11897;45.438;12.128;2022-11-02T14:00:44;24.23;;;9.67;;
23449;SDS011;11897;45.438;12.128;2022-11-02T14:03:12;21.47;;;9.70;;
23449;SDS011;11897;45.438;12.128;2022-11-02T14:05:43;21.33;;;9.27;;
23449;SDS011;11897;45.438;12.128;2022-11-02T14:08:16;17.57;;;8.03;;
23449;SDS011;11897;45.438;12.128;2022-11-02T14:10:59;21.93;;;8.23;;
23449;SDS011;11897;45.438;12.128;2022-11-02T14:16:10;21.80;;;7.23;;
23449;SDS011;11897;45.438;12.128;2022-11-02T14:18:36;20.93;;;8.77;;
23449;SDS011;11897;45.438;12.128;2022-11-02T14:23:50;19.50;;;8.90;;
23449;SDS011;11897;45.438;12.128;2022-11-02T14:26:30;22.50;;;8.40;;
23449;SDS011;11897;45.438;12.128;2022-11-02T14:28:57;24.57;;;7.50;;
23449;SDS011;11897;45.438;12.128;2022-11-02T14:31:27;17.83;;;7.37;;
23449;SDS011;11897;45.438;12.128;2022-11-02T14:34:02;23.07;;;7.97;;
23449;SDS011;11897;45.438;12.128;2022-11-02T14:36:47;19.57;;;7.33;;
23449;SDS011;11897;45.438;12.128;2022-11-02T14:39:22;22.20;;;8.60;;
23449;SDS011;11897;45.438;12.128;2022-11-02T14:41:59;21.83;;;8.80;;
23449;SDS011;11897;45.438;12.128;2022-11-02T14:47:20;23.13;;;8.43;;
23449;SDS011;11897;45.438;12.128;2022-11-02T14:49:52;22.73;;;9.03;;
23449;SDS011;11897;45.438;12.128;2022-11-02T14:52:23;17.23;;;7.13;;
23449;SDS011;11897;45.438;12.128;2022-11-02T14:54:53;25.33;;;7.50;;
23449;SDS011;11897;45.438;12.128;2022-11-02T14:57:25;17.83;;;8.37;;
23449;SDS011;11897;45.438;12.128;2022-11-02T14:59:54;19.73;;;7.90;;
23449;SDS011;11897;45.438;12.128;2022-11-02T15:02:24;21.57;;;8.00;;
23449;SDS011;11897;45.438;12.128;2022-11-02T15:04:54;18.33;;;8.13;;